sensor_id;sensor_type;location;lat;lon;timestamp;P1;durP1;ratioP1;P2;durP2;ratioP2
20870;SDS011;10595;51.218;3.452;2023-05-14T00:02:19;50.67;;;27.07;;
20870;SDS011;10595;51.218;3.452;2023-05-14T00:04:45;53.87;;;29.23;;
20870;SDS011;10595;51.218;3.452;2023-05-14T00:07:11;56.57;;;29.07;;
20870;SDS011;10595;51.218;3.452;2023-05-14T00:09:37;55.90;;;32.20;;
20870;SDS011;10595;51.218;3.452;2023-05-14T00:12:03;55.83;;;29.97;;
20870;SDS011;10595;51.218;3.452;2023-05-14T00:14:29;52.27;;;29.13;;
20870;SDS011;10595;51.218;3.452;2023-05-14T00:16:55;63.67;;;32.93;;
20870;SDS011;10595;51.218;3.452;2023-05-14T00:19:23;66.67;;;33.17;;
20870;SDS011;10595;51.218;3.452;2023-05-14T00:21:49;63.53;;;32.20;;
20870;SDS011;10595;51.218;3.452;2023-05-14T00:24:15;64.10;;;32.13;;
20870;SDS011;10595;51.218;3.452;2023-05-14T00:26:41;62.57;;;32.50;;
20870;SDS011;10595;51.218;3.452;2023-05-14T00:29:07;65.07;;;31.37;;
20870;SDS011;10595;51.218;3.452;2023-05-14T00:31:33;54.40;;;30.30;;
20870;SDS011;10595;51.218;3.452;2023-05-14T00:33:59;51.63;;;28.30;;
20870;SDS011;10595;51.218;3.452;2023-05-14T00:36:25;55.37;;;28.87;;
20870;SDS011;10595;51.218;3.452;2023-05-14T00:38:51;52.40;;;29.37;;
20870;SDS011;10595;51.218;3.452;2023-05-14T00:41:17;49.93;;;30.23;;
20870;SDS011;10595;51.218;3.452;2023-05-14T00:43:43;65.03;;;32.57;;
20870;SDS011;10595;51.218;3.452;2023-05-14T00:46:09;63.07;;;32.03;;
20870;SDS011;10595;51.218;3.452;2023-05-14T00:48:36;60.93;;;32.07;;
20870;SDS011;10595;51.218;3.452;2023-05-14T00:51:02;63.70;;;33.00;;
20870;SDS011;10595;51.218;3.452;2023-05-14T00:53:28;63.67;;;32.30;;
20870;SDS011;10595;51.218;3.452;2023-05-14T00:55:54;63.77;;;30.27;;
20870;SDS011;10595;51.218;3.452;2023-05-14T00:58:20;59.20;;;29.00;;
20870;SDS011;10595;51.218;3.452;2023-05-14T01:00:47;56.70;;;30.13;;
20870;SDS011;10595;51.218;3.452;2023-05-14T01:03:13;53.73;;;29.10;;
20870;SDS011;10595;51.218;3.452;2023-05-14T01:05:52;52.60;;;28.40;;
20870;SDS011;10595;51.218;3.452;2023-05-14T01:11:27;53.00;;;28.97;;
20870;SDS011;10595;51.218;3.452;2023-05-14T01:16:27;68.33;;;33.40;;
20870;SDS011;10595;51.218;3.452;2023-05-14T01:18:54;58.57;;;32.13;;
20870;SDS011;10595;51.218;3.452;2023-05-14T01:21:37;62.37;;;31.07;;
20870;SDS011;10595;51.218;3.452;2023-05-14T01:24:04;61.07;;;29.73;;
20870;SDS011;10595;51.218;3.452;2023-05-14T01:26:31;62.33;;;31.70;;
20870;SDS011;10595;51.218;3.452;2023-05-14T01:29:01;57.97;;;30.83;;
20870;SDS011;10595;51.218;3.452;2023-05-14T01:31:28;59.13;;;31.50;;
20870;SDS011;10595;51.218;3.452;2023-05-14T01:33:56;56.93;;;28.87;;
20870;SDS011;10595;51.218;3.452;2023-05-14T01:36:24;55.60;;;30.70;;
20870;SDS011;10595;51.218;3.452;2023-05-14T01:38:50;56.57;;;30.23;;
20870;SDS011;10595;51.218;3.452;2023-05-14T01:41:17;54.23;;;31.43;;
20870;SDS011;10595;51.218;3.452;2023-05-14T01:43:43;59.70;;;29.07;;
20870;SDS011;10595;51.218;3.452;2023-05-14T01:46:10;62.47;;;32.33;;
20870;SDS011;10595;51.218;3.452;2023-05-14T01:48:36;60.83;;;32.67;;
20870;SDS011;10595;51.218;3.452;2023-05-14T01:51:02;59.73;;;30.47;;
20870;SDS011;10595;51.218;3.452;2023-05-14T01:53:28;59.20;;;30.73;;
20870;SDS011;10595;51.218;3.452;2023-05-14T01:55:54;63.73;;;32.23;;
20870;SDS011;10595;51.218;3.452;2023-05-14T01:58:20;61.27;;;32.30;;
20870;SDS011;10595;51.218;3.452;2023-05-14T02:00:46;59.63;;;33.00;;
20870;SDS011;10595;51.218;3.452;2023-05-14T02:03:12;64.60;;;33.47;;
20870;SDS011;10595;51.218;3.452;2023-05-14T02:05:38;62.67;;;34.33;;
20870;SDS011;10595;51.218;3.452;2023-05-14T02:08:04;64.83;;;33.13;;
20870;SDS011;10595;51.218;3.452;2023-05-14T02:10:30;54.80;;;29.77;;
20870;SDS011;10595;51.218;3.452;2023-05-14T02:12:56;62.13;;;32.73;;
20870;SDS011;10595;51.218;3.452;2023-05-14T02:15:22;62.73;;;33.20;;
20870;SDS011;10595;51.218;3.452;2023-05-14T02:17:48;62.60;;;31.43;;
20870;SDS011;10595;51.218;3.452;2023-05-14T02:20:14;62.90;;;31.53;;
20870;SDS011;10595;51.218;3.452;2023-05-14T02:22:40;63.13;;;32.80;;
20870;SDS011;10595;51.218;3.452;2023-05-14T02:25:09;62.83;;;30.80;;
20870;SDS011;10595;51.218;3.452;2023-05-14T02:27:35;57.40;;;29.63;;
20870;SDS011;10595;51.218;3.452;2023-05-14T02:30:02;60.70;;;30.37;;
20870;SDS011;10595;51.218;3.452;2023-05-14T02:32:28;59.13;;;31.10;;
20870;SDS011;10595;51.218;3.452;2023-05-14T02:34:54;64.70;;;31.37;;
20870;SDS011;10595;51.218;3.452;2023-05-14T02:37:20;58.07;;;29.97;;
20870;SDS011;10595;51.218;3.452;2023-05-14T02:39:46;59.40;;;30.57;;
20870;SDS011;10595;51.218;3.452;2023-05-14T02:42:13;54.97;;;29.47;;
20870;SDS011;10595;51.218;3.452;2023-05-14T02:44:39;56.07;;;29.13;;
20870;SDS011;10595;51.218;3.452;2023-05-14T02:47:05;61.43;;;29.63;;
20870;SDS011;10595;51.218;3.452;2023-05-14T02:49:31;59.53;;;28.77;;
20870;SDS011;10595;51.218;3.452;2023-05-14T02:51:57;54.10;;;27.70;;
20870;SDS011;10595;51.218;3.452;2023-05-14T02:54:24;53.00;;;29.03;;
20870;SDS011;10595;51.218;3.452;2023-05-14T02:56:50;52.80;;;27.60;;
20870;SDS011;10595;51.218;3.452;2023-05-14T02:59:16;55.63;;;29.30;;
20870;SDS011;10595;51.218;3.452;2023-05-14T03:01:42;60.13;;;29.57;;
20870;SDS011;10595;51.218;3.452;2023-05-14T03:04:08;49.13;;;27.73;;
20870;SDS011;10595;51.218;3.452;2023-05-14T03:06:34;57.87;;;29.30;;
20870;SDS011;10595;51.218;3.452;2023-05-14T03:09:00;50.10;;;27.70;;
20870;SDS011;10595;51.218;3.452;2023-05-14T03:11:26;47.20;;;24.73;;
20870;SDS011;10595;51.218;3.452;2023-05-14T03:13:52;55.67;;;26.80;;
20870;SDS011;10595;51.218;3.452;2023-05-14T03:16:18;49.70;;;26.33;;
20870;SDS011;10595;51.218;3.452;2023-05-14T03:18:44;50.03;;;26.00;;
20870;SDS011;10595;51.218;3.452;2023-05-14T03:21:11;49.67;;;27.60;;
20870;SDS011;10595;51.218;3.452;2023-05-14T03:23:37;56.77;;;27.37;;
20870;SDS011;10595;51.218;3.452;2023-05-14T03:26:03;53.73;;;27.80;;
20870;SDS011;10595;51.218;3.452;2023-05-14T03:28:29;54.83;;;27.70;;
20870;SDS011;10595;51.218;3.452;2023-05-14T03:30:55;54.17;;;26.90;;
20870;SDS011;10595;51.218;3.452;2023-05-14T03:33:21;59.10;;;26.90;;
20870;SDS011;10595;51.218;3.452;2023-05-14T03:35:47;54.97;;;27.23;;
20870;SDS011;10595;51.218;3.452;2023-05-14T03:38:13;55.50;;;27.70;;
20870;SDS011;10595;51.218;3.452;2023-05-14T03:40:39;57.23;;;27.23;;
20870;SDS011;10595;51.218;3.452;2023-05-14T03:43:05;57.53;;;28.50;;
20870;SDS011;10595;51.218;3.452;2023-05-14T03:45:32;53.00;;;26.53;;
20870;SDS011;10595;51.218;3.452;2023-05-14T03:47:58;53.37;;;27.30;;
20870;SDS011;10595;51.218;3.452;2023-05-14T03:50:24;50.73;;;26.10;;
20870;SDS011;10595;51.218;3.452;2023-05-14T03:52:50;49.67;;;28.10;;
20870;SDS011;10595;51.218;3.452;2023-05-14T03:55:19;53.07;;;28.43;;
20870;SDS011;10595;51.218;3.452;2023-05-14T03:57:46;55.83;;;28.13;;
20870;SDS011;10595;51.218;3.452;2023-05-14T04:00:13;48.83;;;27.77;;
20870;SDS011;10595;51.218;3.452;2023-05-14T04:02:39;52.03;;;29.00;;
20870;SDS011;10595;51.218;3.452;2023-05-14T04:05:05;52.73;;;29.37;;
20870;SDS011;10595;51.218;3.452;2023-05-14T04:07:31;62.10;;;30.80;;
20870;SDS011;10595;51.218;3.452;2023-05-14T04:09:57;64.10;;;31.00;;
20870;SDS011;10595;51.218;3.452;2023-05-14T04:12:24;60.57;;;32.77;;
20870;SDS011;10595;51.218;3.452;2023-05-14T04:14:51;74.37;;;37.40;;
20870;SDS011;10595;51.218;3.452;2023-05-14T04:17:17;61.00;;;33.63;;
20870;SDS011;10595;51.218;3.452;2023-05-14T04:19:43;58.43;;;31.33;;
20870;SDS011;10595;51.218;3.452;2023-05-14T04:22:09;57.30;;;31.70;;
20870;SDS011;10595;51.218;3.452;2023-05-14T04:24:35;56.83;;;29.97;;
20870;SDS011;10595;51.218;3.452;2023-05-14T04:27:02;53.53;;;29.27;;
20870;SDS011;10595;51.218;3.452;2023-05-14T04:29:28;54.23;;;29.43;;
20870;SDS011;10595;51.218;3.452;2023-05-14T04:31:54;56.57;;;30.37;;
20870;SDS011;10595;51.218;3.452;2023-05-14T04:34:20;53.07;;;30.33;;
20870;SDS011;10595;51.218;3.452;2023-05-14T04:36:46;56.00;;;30.43;;
20870;SDS011;10595;51.218;3.452;2023-05-14T04:39:12;51.10;;;29.77;;
20870;SDS011;10595;51.218;3.452;2023-05-14T04:41:39;49.20;;;27.50;;
20870;SDS011;10595;51.218;3.452;2023-05-14T04:44:05;48.83;;;27.77;;
20870;SDS011;10595;51.218;3.452;2023-05-14T04:46:31;50.40;;;28.47;;
20870;SDS011;10595;51.218;3.452;2023-05-14T04:48:57;54.10;;;29.00;;
20870;SDS011;10595;51.218;3.452;2023-05-14T04:51:23;51.27;;;27.70;;
20870;SDS011;10595;51.218;3.452;2023-05-14T04:53:50;55.40;;;28.30;;
20870;SDS011;10595;51.218;3.452;2023-05-14T04:56:16;50.33;;;28.40;;
20870;SDS011;10595;51.218;3.452;2023-05-14T04:58:42;50.13;;;29.03;;
20870;SDS011;10595;51.218;3.452;2023-05-14T05:01:08;51.23;;;27.80;;
20870;SDS011;10595;51.218;3.452;2023-05-14T05:03:34;46.33;;;27.90;;
20870;SDS011;10595;51.218;3.452;2023-05-14T05:06:00;51.50;;;26.97;;
20870;SDS011;10595;51.218;3.452;2023-05-14T05:08:26;50.30;;;27.13;;
20870;SDS011;10595;51.218;3.452;2023-05-14T05:10:52;44.17;;;26.37;;
20870;SDS011;10595;51.218;3.452;2023-05-14T05:13:18;48.13;;;26.50;;
20870;SDS011;10595;51.218;3.452;2023-05-14T05:15:44;47.00;;;27.40;;
20870;SDS011;10595;51.218;3.452;2023-05-14T05:18:10;36.03;;;23.27;;
20870;SDS011;10595;51.218;3.452;2023-05-14T05:20:36;52.33;;;27.13;;
20870;SDS011;10595;51.218;3.452;2023-05-14T05:23:02;48.23;;;28.03;;
20870;SDS011;10595;51.218;3.452;2023-05-14T05:25:28;46.47;;;26.33;;
20870;SDS011;10595;51.218;3.452;2023-05-14T05:27:55;47.73;;;28.07;;
20870;SDS011;10595;51.218;3.452;2023-05-14T05:30:21;51.83;;;28.00;;
20870;SDS011;10595;51.218;3.452;2023-05-14T05:32:47;52.37;;;30.10;;
20870;SDS011;10595;51.218;3.452;2023-05-14T05:35:13;43.77;;;25.70;;
20870;SDS011;10595;51.218;3.452;2023-05-14T05:37:39;42.73;;;24.60;;
20870;SDS011;10595;51.218;3.452;2023-05-14T05:40:05;38.43;;;24.13;;
20870;SDS011;10595;51.218;3.452;2023-05-14T05:42:33;39.17;;;24.70;;
20870;SDS011;10595;51.218;3.452;2023-05-14T05:44:59;39.13;;;26.43;;
20870;SDS011;10595;51.218;3.452;2023-05-14T05:47:25;53.50;;;28.20;;
20870;SDS011;10595;51.218;3.452;2023-05-14T05:49:51;44.20;;;27.33;;
20870;SDS011;10595;51.218;3.452;2023-05-14T05:52:18;43.87;;;26.43;;
20870;SDS011;10595;51.218;3.452;2023-05-14T05:54:44;42.10;;;25.60;;
20870;SDS011;10595;51.218;3.452;2023-05-14T05:57:10;48.20;;;26.20;;
20870;SDS011;10595;51.218;3.452;2023-05-14T05:59:36;44.77;;;25.60;;
20870;SDS011;10595;51.218;3.452;2023-05-14T06:02:02;46.07;;;27.50;;
20870;SDS011;10595;51.218;3.452;2023-05-14T06:04:28;38.93;;;25.83;;
20870;SDS011;10595;51.218;3.452;2023-05-14T06:06:54;49.70;;;27.93;;
20870;SDS011;10595;51.218;3.452;2023-05-14T06:09:20;45.40;;;25.80;;
20870;SDS011;10595;51.218;3.452;2023-05-14T06:11:46;40.20;;;25.50;;
20870;SDS011;10595;51.218;3.452;2023-05-14T06:14:12;39.33;;;25.33;;
20870;SDS011;10595;51.218;3.452;2023-05-14T06:16:38;40.13;;;24.43;;
20870;SDS011;10595;51.218;3.452;2023-05-14T06:19:04;41.43;;;25.30;;
20870;SDS011;10595;51.218;3.452;2023-05-14T06:21:32;39.33;;;23.20;;
20870;SDS011;10595;51.218;3.452;2023-05-14T06:23:58;39.23;;;24.43;;
20870;SDS011;10595;51.218;3.452;2023-05-14T06:26:24;46.37;;;25.73;;
20870;SDS011;10595;51.218;3.452;2023-05-14T06:28:50;42.30;;;25.40;;
20870;SDS011;10595;51.218;3.452;2023-05-14T06:31:17;44.03;;;25.03;;
20870;SDS011;10595;51.218;3.452;2023-05-14T06:33:43;44.57;;;26.87;;
20870;SDS011;10595;51.218;3.452;2023-05-14T06:36:09;32.27;;;20.90;;
20870;SDS011;10595;51.218;3.452;2023-05-14T06:38:35;39.57;;;21.30;;
20870;SDS011;10595;51.218;3.452;2023-05-14T06:41:01;38.77;;;23.77;;
20870;SDS011;10595;51.218;3.452;2023-05-14T06:43:27;37.67;;;23.00;;
20870;SDS011;10595;51.218;3.452;2023-05-14T06:45:53;41.17;;;24.00;;
20870;SDS011;10595;51.218;3.452;2023-05-14T06:48:19;43.50;;;25.40;;
20870;SDS011;10595;51.218;3.452;2023-05-14T06:50:46;36.67;;;22.90;;
20870;SDS011;10595;51.218;3.452;2023-05-14T06:53:12;36.73;;;22.30;;
20870;SDS011;10595;51.218;3.452;2023-05-14T06:55:38;37.27;;;24.23;;
20870;SDS011;10595;51.218;3.452;2023-05-14T06:58:08;40.77;;;22.90;;
20870;SDS011;10595;51.218;3.452;2023-05-14T07:00:34;39.17;;;22.47;;
20870;SDS011;10595;51.218;3.452;2023-05-14T07:03:00;40.97;;;24.50;;
20870;SDS011;10595;51.218;3.452;2023-05-14T07:05:26;39.33;;;23.53;;
20870;SDS011;10595;51.218;3.452;2023-05-14T07:07:52;34.73;;;22.20;;
20870;SDS011;10595;51.218;3.452;2023-05-14T07:10:18;28.47;;;19.47;;
20870;SDS011;10595;51.218;3.452;2023-05-14T07:12:44;35.57;;;20.60;;
20870;SDS011;10595;51.218;3.452;2023-05-14T07:15:10;35.13;;;21.60;;
20870;SDS011;10595;51.218;3.452;2023-05-14T07:17:36;28.73;;;19.57;;
20870;SDS011;10595;51.218;3.452;2023-05-14T07:20:02;31.57;;;20.43;;
20870;SDS011;10595;51.218;3.452;2023-05-14T07:22:28;30.13;;;21.37;;
20870;SDS011;10595;51.218;3.452;2023-05-14T07:24:54;34.90;;;22.23;;
20870;SDS011;10595;51.218;3.452;2023-05-14T07:27:20;32.80;;;22.03;;
20870;SDS011;10595;51.218;3.452;2023-05-14T07:29:46;40.60;;;23.93;;
20870;SDS011;10595;51.218;3.452;2023-05-14T07:32:13;30.27;;;20.83;;
20870;SDS011;10595;51.218;3.452;2023-05-14T07:34:38;31.10;;;20.70;;
20870;SDS011;10595;51.218;3.452;2023-05-14T07:37:05;31.73;;;19.33;;
20870;SDS011;10595;51.218;3.452;2023-05-14T07:39:31;31.60;;;19.60;;
20870;SDS011;10595;51.218;3.452;2023-05-14T07:41:57;30.53;;;19.50;;
20870;SDS011;10595;51.218;3.452;2023-05-14T07:44:23;29.73;;;18.70;;
20870;SDS011;10595;51.218;3.452;2023-05-14T07:46:49;27.13;;;17.43;;
20870;SDS011;10595;51.218;3.452;2023-05-14T07:49:15;30.57;;;18.67;;
20870;SDS011;10595;51.218;3.452;2023-05-14T07:51:41;28.03;;;17.17;;
20870;SDS011;10595;51.218;3.452;2023-05-14T07:54:07;24.63;;;16.87;;
20870;SDS011;10595;51.218;3.452;2023-05-14T07:56:33;31.10;;;17.77;;
20870;SDS011;10595;51.218;3.452;2023-05-14T07:58:59;26.70;;;17.47;;
20870;SDS011;10595;51.218;3.452;2023-05-14T08:01:25;25.67;;;17.07;;
20870;SDS011;10595;51.218;3.452;2023-05-14T08:03:51;26.27;;;15.83;;
20870;SDS011;10595;51.218;3.452;2023-05-14T08:06:17;24.00;;;15.97;;
20870;SDS011;10595;51.218;3.452;2023-05-14T08:08:45;28.10;;;16.53;;
20870;SDS011;10595;51.218;3.452;2023-05-14T08:11:11;26.30;;;17.03;;
20870;SDS011;10595;51.218;3.452;2023-05-14T08:13:37;25.40;;;17.80;;
20870;SDS011;10595;51.218;3.452;2023-05-14T08:16:03;25.00;;;16.93;;
20870;SDS011;10595;51.218;3.452;2023-05-14T08:18:29;24.57;;;17.13;;
20870;SDS011;10595;51.218;3.452;2023-05-14T08:20:55;24.13;;;15.93;;
20870;SDS011;10595;51.218;3.452;2023-05-14T08:23:21;22.97;;;15.13;;
20870;SDS011;10595;51.218;3.452;2023-05-14T08:25:47;26.93;;;16.43;;
20870;SDS011;10595;51.218;3.452;2023-05-14T08:28:13;27.43;;;16.60;;
20870;SDS011;10595;51.218;3.452;2023-05-14T08:30:39;24.93;;;17.80;;
20870;SDS011;10595;51.218;3.452;2023-05-14T08:33:05;25.83;;;17.33;;
20870;SDS011;10595;51.218;3.452;2023-05-14T08:35:31;22.53;;;15.83;;
20870;SDS011;10595;51.218;3.452;2023-05-14T08:37:57;24.83;;;15.73;;
20870;SDS011;10595;51.218;3.452;2023-05-14T08:40:23;21.57;;;14.80;;
20870;SDS011;10595;51.218;3.452;2023-05-14T08:42:50;20.60;;;14.70;;
20870;SDS011;10595;51.218;3.452;2023-05-14T08:45:19;25.03;;;15.73;;
20870;SDS011;10595;51.218;3.452;2023-05-14T08:47:47;25.83;;;15.13;;
20870;SDS011;10595;51.218;3.452;2023-05-14T08:50:14;27.37;;;15.27;;
20870;SDS011;10595;51.218;3.452;2023-05-14T08:52:40;26.13;;;15.20;;
20870;SDS011;10595;51.218;3.452;2023-05-14T08:55:06;37.33;;;15.37;;
20870;SDS011;10595;51.218;3.452;2023-05-14T08:57:33;38.83;;;14.70;;
20870;SDS011;10595;51.218;3.452;2023-05-14T08:59:59;20.97;;;13.77;;
20870;SDS011;10595;51.218;3.452;2023-05-14T09:02:29;16.77;;;12.50;;
20870;SDS011;10595;51.218;3.452;2023-05-14T09:04:56;15.60;;;11.90;;
20870;SDS011;10595;51.218;3.452;2023-05-14T09:07:23;16.63;;;11.60;;
20870;SDS011;10595;51.218;3.452;2023-05-14T09:09:49;16.13;;;11.63;;
20870;SDS011;10595;51.218;3.452;2023-05-14T09:12:16;15.57;;;10.83;;
20870;SDS011;10595;51.218;3.452;2023-05-14T09:14:42;16.37;;;10.73;;
20870;SDS011;10595;51.218;3.452;2023-05-14T09:17:08;18.10;;;11.40;;
20870;SDS011;10595;51.218;3.452;2023-05-14T09:19:37;17.93;;;11.80;;
20870;SDS011;10595;51.218;3.452;2023-05-14T09:22:05;15.20;;;10.97;;
20870;SDS011;10595;51.218;3.452;2023-05-14T09:24:32;16.27;;;11.57;;
20870;SDS011;10595;51.218;3.452;2023-05-14T09:26:58;20.33;;;11.40;;
20870;SDS011;10595;51.218;3.452;2023-05-14T09:29:27;15.13;;;11.87;;
20870;SDS011;10595;51.218;3.452;2023-05-14T09:31:54;17.20;;;11.40;;
20870;SDS011;10595;51.218;3.452;2023-05-14T09:34:24;19.67;;;10.90;;
20870;SDS011;10595;51.218;3.452;2023-05-14T09:36:55;17.30;;;10.70;;
20870;SDS011;10595;51.218;3.452;2023-05-14T09:39:22;15.43;;;10.73;;
20870;SDS011;10595;51.218;3.452;2023-05-14T09:41:48;14.40;;;10.43;;
20870;SDS011;10595;51.218;3.452;2023-05-14T09:44:15;14.13;;;10.83;;
20870;SDS011;10595;51.218;3.452;2023-05-14T09:46:41;13.97;;;10.47;;
20870;SDS011;10595;51.218;3.452;2023-05-14T09:49:07;22.73;;;13.07;;
20870;SDS011;10595;51.218;3.452;2023-05-14T09:51:33;26.30;;;12.67;;
20870;SDS011;10595;51.218;3.452;2023-05-14T09:54:01;14.37;;;10.70;;
20870;SDS011;10595;51.218;3.452;2023-05-14T09:56:28;16.37;;;11.60;;
20870;SDS011;10595;51.218;3.452;2023-05-14T09:58:54;14.07;;;11.10;;
20870;SDS011;10595;51.218;3.452;2023-05-14T10:01:20;16.40;;;11.73;;
20870;SDS011;10595;51.218;3.452;2023-05-14T10:03:47;18.27;;;11.53;;
20870;SDS011;10595;51.218;3.452;2023-05-14T10:06:14;20.13;;;11.53;;
20870;SDS011;10595;51.218;3.452;2023-05-14T10:08:43;16.73;;;11.67;;
20870;SDS011;10595;51.218;3.452;2023-05-14T10:11:14;17.00;;;11.23;;
20870;SDS011;10595;51.218;3.452;2023-05-14T10:13:41;19.20;;;11.43;;
20870;SDS011;10595;51.218;3.452;2023-05-14T10:18:35;21.63;;;11.87;;
20870;SDS011;10595;51.218;3.452;2023-05-14T10:21:05;23.30;;;11.87;;
20870;SDS011;10595;51.218;3.452;2023-05-14T10:23:31;17.87;;;12.10;;
20870;SDS011;10595;51.218;3.452;2023-05-14T10:25:58;16.77;;;12.50;;
20870;SDS011;10595;51.218;3.452;2023-05-14T10:28:24;20.50;;;11.60;;
20870;SDS011;10595;51.218;3.452;2023-05-14T10:30:50;19.37;;;11.90;;
20870;SDS011;10595;51.218;3.452;2023-05-14T10:33:16;15.83;;;10.73;;
20870;SDS011;10595;51.218;3.452;2023-05-14T10:35:49;26.53;;;12.37;;
20870;SDS011;10595;51.218;3.452;2023-05-14T10:38:16;16.63;;;12.10;;
20870;SDS011;10595;51.218;3.452;2023-05-14T10:40:42;17.60;;;12.53;;
20870;SDS011;10595;51.218;3.452;2023-05-14T10:43:08;17.73;;;12.50;;
20870;SDS011;10595;51.218;3.452;2023-05-14T10:45:35;22.60;;;12.10;;
20870;SDS011;10595;51.218;3.452;2023-05-14T10:48:01;20.27;;;13.13;;
20870;SDS011;10595;51.218;3.452;2023-05-14T10:50:28;18.47;;;12.20;;
20870;SDS011;10595;51.218;3.452;2023-05-14T10:52:54;19.87;;;12.93;;
20870;SDS011;10595;51.218;3.452;2023-05-14T10:55:21;24.63;;;12.33;;
20870;SDS011;10595;51.218;3.452;2023-05-14T10:57:47;21.33;;;14.03;;
20870;SDS011;10595;51.218;3.452;2023-05-14T11:00:13;17.70;;;12.23;;
20870;SDS011;10595;51.218;3.452;2023-05-14T11:02:40;19.30;;;13.13;;
20870;SDS011;10595;51.218;3.452;2023-05-14T11:05:11;16.73;;;12.40;;
20870;SDS011;10595;51.218;3.452;2023-05-14T11:07:40;22.53;;;13.20;;
20870;SDS011;10595;51.218;3.452;2023-05-14T11:10:14;18.53;;;12.27;;
20870;SDS011;10595;51.218;3.452;2023-05-14T11:12:41;18.13;;;12.70;;
20870;SDS011;10595;51.218;3.452;2023-05-14T11:15:08;15.83;;;11.20;;
20870;SDS011;10595;51.218;3.452;2023-05-14T11:17:34;21.97;;;12.33;;
20870;SDS011;10595;51.218;3.452;2023-05-14T11:20:01;19.10;;;11.73;;
20870;SDS011;10595;51.218;3.452;2023-05-14T11:22:27;18.50;;;12.47;;
20870;SDS011;10595;51.218;3.452;2023-05-14T11:24:53;20.37;;;12.10;;
20870;SDS011;10595;51.218;3.452;2023-05-14T11:27:20;23.63;;;13.17;;
20870;SDS011;10595;51.218;3.452;2023-05-14T11:29:48;17.27;;;11.70;;
20870;SDS011;10595;51.218;3.452;2023-05-14T11:32:14;16.40;;;11.33;;
20870;SDS011;10595;51.218;3.452;2023-05-14T11:34:41;16.73;;;11.13;;
20870;SDS011;10595;51.218;3.452;2023-05-14T11:37:11;19.20;;;12.10;;
20870;SDS011;10595;51.218;3.452;2023-05-14T11:39:38;14.33;;;10.47;;
20870;SDS011;10595;51.218;3.452;2023-05-14T11:42:08;15.77;;;11.17;;
20870;SDS011;10595;51.218;3.452;2023-05-14T11:44:39;19.57;;;12.40;;
20870;SDS011;10595;51.218;3.452;2023-05-14T11:47:08;16.90;;;11.23;;
20870;SDS011;10595;51.218;3.452;2023-05-14T11:49:34;19.73;;;11.67;;
20870;SDS011;10595;51.218;3.452;2023-05-14T11:52:02;13.77;;;10.97;;
20870;SDS011;10595;51.218;3.452;2023-05-14T11:54:28;12.80;;;9.87;;
20870;SDS011;10595;51.218;3.452;2023-05-14T11:56:55;15.60;;;10.53;;
20870;SDS011;10595;51.218;3.452;2023-05-14T11:59:28;16.83;;;10.50;;
20870;SDS011;10595;51.218;3.452;2023-05-14T12:01:54;18.93;;;11.57;;
20870;SDS011;10595;51.218;3.452;2023-05-14T12:04:20;15.53;;;10.90;;
20870;SDS011;10595;51.218;3.452;2023-05-14T12:06:50;17.57;;;9.70;;
20870;SDS011;10595;51.218;3.452;2023-05-14T12:09:17;17.33;;;10.73;;
20870;SDS011;10595;51.218;3.452;2023-05-14T12:11:43;16.50;;;11.50;;
20870;SDS011;10595;51.218;3.452;2023-05-14T12:14:13;15.03;;;10.50;;
20870;SDS011;10595;51.218;3.452;2023-05-14T12:16:40;18.80;;;11.30;;
20870;SDS011;10595;51.218;3.452;2023-05-14T12:19:07;16.77;;;11.37;;
20870;SDS011;10595;51.218;3.452;2023-05-14T12:21:34;21.00;;;12.33;;
20870;SDS011;10595;51.218;3.452;2023-05-14T12:24:00;15.63;;;10.87;;
20870;SDS011;10595;51.218;3.452;2023-05-14T12:26:26;20.10;;;11.60;;
20870;SDS011;10595;51.218;3.452;2023-05-14T12:28:59;21.53;;;11.23;;
20870;SDS011;10595;51.218;3.452;2023-05-14T12:31:26;15.97;;;10.83;;
20870;SDS011;10595;51.218;3.452;2023-05-14T12:33:53;15.57;;;10.47;;
20870;SDS011;10595;51.218;3.452;2023-05-14T12:36:19;17.60;;;11.30;;
20870;SDS011;10595;51.218;3.452;2023-05-14T12:38:45;15.63;;;10.37;;
20870;SDS011;10595;51.218;3.452;2023-05-14T12:41:11;13.30;;;9.70;;
20870;SDS011;10595;51.218;3.452;2023-05-14T12:43:37;15.23;;;9.60;;
20870;SDS011;10595;51.218;3.452;2023-05-14T12:46:04;16.47;;;10.10;;
20870;SDS011;10595;51.218;3.452;2023-05-14T12:48:30;16.83;;;10.87;;
20870;SDS011;10595;51.218;3.452;2023-05-14T12:50:56;18.17;;;11.07;;
20870;SDS011;10595;51.218;3.452;2023-05-14T12:53:22;19.40;;;11.80;;
20870;SDS011;10595;51.218;3.452;2023-05-14T12:55:48;17.80;;;11.77;;
20870;SDS011;10595;51.218;3.452;2023-05-14T12:58:14;13.73;;;9.77;;
20870;SDS011;10595;51.218;3.452;2023-05-14T13:00:40;14.40;;;10.43;;
20870;SDS011;10595;51.218;3.452;2023-05-14T13:03:06;15.03;;;8.83;;
20870;SDS011;10595;51.218;3.452;2023-05-14T13:05:32;16.37;;;9.77;;
20870;SDS011;10595;51.218;3.452;2023-05-14T13:07:59;14.97;;;9.53;;
20870;SDS011;10595;51.218;3.452;2023-05-14T13:10:27;11.70;;;9.47;;
20870;SDS011;10595;51.218;3.452;2023-05-14T13:12:53;14.90;;;8.53;;
20870;SDS011;10595;51.218;3.452;2023-05-14T13:15:20;17.47;;;9.30;;
20870;SDS011;10595;51.218;3.452;2023-05-14T13:17:47;13.67;;;9.17;;
20870;SDS011;10595;51.218;3.452;2023-05-14T13:20:13;13.67;;;10.00;;
20870;SDS011;10595;51.218;3.452;2023-05-14T13:22:39;15.27;;;10.43;;
20870;SDS011;10595;51.218;3.452;2023-05-14T13:25:05;17.47;;;11.50;;
20870;SDS011;10595;51.218;3.452;2023-05-14T13:27:31;18.67;;;12.50;;
20870;SDS011;10595;51.218;3.452;2023-05-14T13:29:59;22.03;;;12.17;;
20870;SDS011;10595;51.218;3.452;2023-05-14T13:32:25;45.50;;;13.10;;
20870;SDS011;10595;51.218;3.452;2023-05-14T13:34:51;15.80;;;11.00;;
20870;SDS011;10595;51.218;3.452;2023-05-14T13:37:17;18.43;;;12.37;;
20870;SDS011;10595;51.218;3.452;2023-05-14T13:39:43;17.80;;;11.80;;
20870;SDS011;10595;51.218;3.452;2023-05-14T13:42:09;16.73;;;13.10;;
20870;SDS011;10595;51.218;3.452;2023-05-14T13:44:35;12.83;;;10.30;;
20870;SDS011;10595;51.218;3.452;2023-05-14T13:47:01;17.47;;;11.50;;
20870;SDS011;10595;51.218;3.452;2023-05-14T13:49:28;16.10;;;10.47;;
20870;SDS011;10595;51.218;3.452;2023-05-14T13:51:54;18.43;;;11.03;;
20870;SDS011;10595;51.218;3.452;2023-05-14T13:54:21;15.93;;;10.20;;
20870;SDS011;10595;51.218;3.452;2023-05-14T13:56:47;17.80;;;10.67;;
20870;SDS011;10595;51.218;3.452;2023-05-14T13:59:13;24.97;;;11.33;;
20870;SDS011;10595;51.218;3.452;2023-05-14T14:01:39;16.23;;;10.77;;
20870;SDS011;10595;51.218;3.452;2023-05-14T14:04:07;19.27;;;11.53;;
20870;SDS011;10595;51.218;3.452;2023-05-14T14:06:33;18.23;;;10.70;;
20870;SDS011;10595;51.218;3.452;2023-05-14T14:08:59;15.73;;;11.50;;
20870;SDS011;10595;51.218;3.452;2023-05-14T14:11:25;14.63;;;11.67;;
20870;SDS011;10595;51.218;3.452;2023-05-14T14:13:52;15.07;;;11.03;;
20870;SDS011;10595;51.218;3.452;2023-05-14T14:16:18;22.37;;;12.93;;
20870;SDS011;10595;51.218;3.452;2023-05-14T14:18:44;21.57;;;11.97;;
20870;SDS011;10595;51.218;3.452;2023-05-14T14:21:10;16.50;;;11.77;;
20870;SDS011;10595;51.218;3.452;2023-05-14T14:23:36;18.70;;;11.07;;
20870;SDS011;10595;51.218;3.452;2023-05-14T14:26:02;16.87;;;10.63;;